createdAt,value
2017-07-27T00:00:31.463Z,5.10
2017-07-27T00:02:58.544Z,5.60
2017-07-27T00:05:24.908Z,4.95
2017-07-27T00:07:51.241Z,5.35
2017-07-27T00:10:17.582Z,5.45
2017-07-27T00:12:43.891Z,5.28
2017-07-27T00:15:10.215Z,7.12
2017-07-27T00:17:36.557Z,4.72
2017-07-27T00:20:02.883Z,4.97
2017-07-27T00:22:29.211Z,5.35
2017-07-27T00:24:55.580Z,4.35
2017-07-27T00:27:21.885Z,5.05
2017-07-27T00:29:48.243Z,6.72
2017-07-27T00:32:14.583Z,4.80
2017-07-27T00:34:40.910Z,4.82
2017-07-27T00:37:08.048Z,5.10
2017-07-27T00:39:34.411Z,5.18
2017-07-27T00:42:01.455Z,4.55
2017-07-27T00:44:28.545Z,5.68
2017-07-27T00:46:54.887Z,4.70
2017-07-27T00:49:21.187Z,6.22
2017-07-27T00:51:48.229Z,7.18
2017-07-27T00:54:15.303Z,6.85
2017-07-27T00:56:41.607Z,5.65
2017-07-27T00:59:07.956Z,5.12
2017-07-27T01:01:34.323Z,7.10
2017-07-27T01:04:00.625Z,4.95
2017-07-27T01:06:26.964Z,4.50
2017-07-27T01:08:53.332Z,4.50
2017-07-27T01:11:20.394Z,4.80
2017-07-27T01:13:47.448Z,5.32
2017-07-27T01:16:13.769Z,4.07
2017-07-27T01:18:40.852Z,4.30
2017-07-27T01:21:07.535Z,4.40
2017-07-27T01:23:33.883Z,6.97
2017-07-27T01:26:00.924Z,4.32
2017-07-27T01:28:27.268Z,4.55
2017-07-27T01:30:53.640Z,5.30
2017-07-27T01:33:19.967Z,4.53
2017-07-27T01:35:46.336Z,3.90
2017-07-27T01:38:12.695Z,3.75
2017-07-27T01:40:39.043Z,4.43
2017-07-27T01:43:05.413Z,5.05
2017-07-27T01:45:31.767Z,4.43
2017-07-27T01:47:58.847Z,4.07
2017-07-27T01:50:25.247Z,4.47
2017-07-27T01:52:52.352Z,5.15
2017-07-27T01:55:18.753Z,4.12
2017-07-27T01:57:45.159Z,4.35
2017-07-27T02:00:11.539Z,4.72
2017-07-27T02:02:37.903Z,3.65
2017-07-27T02:05:04.255Z,4.05
2017-07-27T02:07:31.343Z,4.40
2017-07-27T02:09:58.020Z,5.40
2017-07-27T02:12:24.351Z,4.60
2017-07-27T02:14:50.683Z,4.75
2017-07-27T02:17:17.003Z,5.32
2017-07-27T02:19:43.328Z,5.78
2017-07-27T02:22:09.655Z,4.95
2017-07-27T02:24:35.978Z,5.80
2017-07-27T02:27:02.280Z,5.40
2017-07-27T02:29:28.610Z,6.12
2017-07-27T02:31:55.660Z,4.72
2017-07-27T02:34:21.976Z,4.70
2017-07-27T02:36:49.058Z,6.97
2017-07-27T02:39:15.380Z,5.90
2017-07-27T02:41:41.684Z,7.78
2017-07-27T02:44:08.031Z,6.30
2017-07-27T02:46:34.332Z,6.20
2017-07-27T02:49:00.672Z,6.10
2017-07-27T02:51:27.715Z,7.07
2017-07-27T02:53:54.024Z,6.40
2017-07-27T02:56:20.384Z,6.60
2017-07-27T02:58:47.450Z,6.82
2017-07-27T03:01:13.795Z,8.15
2017-07-27T03:03:40.165Z,8.10
2017-07-27T03:06:06.514Z,6.90
2017-07-27T03:08:33.599Z,6.80
2017-07-27T03:10:59.943Z,8.52
2017-07-27T03:13:26.288Z,7.45
2017-07-27T03:15:52.627Z,8.23
2017-07-27T03:18:18.931Z,6.65
2017-07-27T03:20:45.263Z,8.40
2017-07-27T03:23:11.601Z,7.82
2017-07-27T03:25:37.904Z,8.25
2017-07-27T03:28:04.223Z,7.50
2017-07-27T03:30:30.544Z,8.20
2017-07-27T03:35:46.931Z,9.05
2017-07-27T03:38:13.259Z,8.23
2017-07-27T03:40:39.563Z,9.10
2017-07-27T03:43:05.960Z,8.20
2017-07-27T03:45:33.829Z,9.95
2017-07-27T03:48:00.170Z,7.45
2017-07-27T03:50:26.480Z,8.50
2017-07-27T03:52:52.821Z,8.43
2017-07-27T03:55:19.206Z,7.65
2017-07-27T03:57:45.543Z,8.85
2017-07-27T04:00:11.856Z,8.77
2017-07-27T04:02:38.197Z,8.35
2017-07-27T04:05:04.537Z,7.32
2017-07-27T04:07:30.877Z,6.93
2017-07-27T04:09:57.216Z,6.78
2017-07-27T04:12:24.269Z,6.60
2017-07-27T04:14:51.372Z,6.80
2017-07-27T04:17:17.684Z,6.50
2017-07-27T04:19:43.999Z,6.47
2017-07-27T04:22:10.335Z,6.10
2017-07-27T04:24:36.655Z,6.82
2017-07-27T04:27:03.048Z,5.65
2017-07-27T04:29:29.357Z,5.28
2017-07-27T04:31:55.660Z,4.90
2017-07-27T04:34:21.999Z,6.10
2017-07-27T04:36:48.323Z,5.75
2017-07-27T04:39:15.711Z,5.78
2017-07-27T04:41:42.068Z,5.57
2017-07-27T04:44:09.192Z,5.18
2017-07-27T04:46:35.508Z,5.45
2017-07-27T04:49:01.842Z,5.97
2017-07-27T04:51:28.182Z,5.47
2017-07-27T04:53:54.476Z,5.53
2017-07-27T04:56:20.799Z,5.60
2017-07-27T04:58:47.136Z,5.30
2017-07-27T05:01:13.351Z,5.55
2017-07-27T05:03:39.635Z,5.55
2017-07-27T05:06:05.859Z,4.90
2017-07-27T05:08:32.863Z,5.85
2017-07-27T05:10:59.125Z,5.22
2017-07-27T05:13:25.335Z,4.65
2017-07-27T05:15:51.567Z,6.37
2017-07-27T05:18:17.820Z,4.60
2017-07-27T05:20:44.055Z,4.80
2017-07-27T05:23:11.027Z,4.95
2017-07-27T05:25:37.273Z,4.65
2017-07-27T05:28:03.516Z,5.05
2017-07-27T05:30:29.767Z,4.70
2017-07-27T05:32:55.978Z,4.45
2017-07-27T05:35:22.232Z,4.95
2017-07-27T05:37:48.483Z,4.97
2017-07-27T05:40:15.456Z,4.93
2017-07-27T05:42:42.527Z,5.60
2017-07-27T05:45:08.799Z,5.10
2017-07-27T05:47:35.782Z,5.30
2017-07-27T05:50:02.033Z,5.47
2017-07-27T05:52:28.269Z,6.68
2017-07-27T05:54:57.913Z,5.18
2017-07-27T05:57:25.029Z,4.78
2017-07-27T05:59:51.311Z,4.90
2017-07-27T06:02:18.900Z,5.68
2017-07-27T06:04:45.149Z,5.75
2017-07-27T06:07:11.460Z,4.93
2017-07-27T06:09:37.695Z,6.05
2017-07-27T06:12:03.971Z,7.40
2017-07-27T06:14:30.213Z,5.53
2017-07-27T06:20:09.668Z,5.80
2017-07-27T06:22:35.900Z,5.37
2017-07-27T06:25:02.185Z,5.45
2017-07-27T06:27:28.425Z,5.00
2017-07-27T06:29:55.763Z,5.72
2017-07-27T06:32:22.063Z,5.53
2017-07-27T06:34:48.300Z,5.25
2017-07-27T06:37:14.608Z,4.97
2017-07-27T06:39:40.839Z,5.28
2017-07-27T06:42:07.046Z,4.78
2017-07-27T06:44:33.319Z,4.93
2017-07-27T06:46:59.547Z,5.25
2017-07-27T06:49:25.767Z,6.30
2017-07-27T06:51:52.064Z,4.80
2017-07-27T06:54:18.323Z,5.18
2017-07-27T06:56:44.575Z,5.18
2017-07-27T06:59:11.626Z,4.85
2017-07-27T07:01:37.889Z,4.72
2017-07-27T07:04:04.151Z,6.10
2017-07-27T07:06:30.379Z,4.70
2017-07-27T07:08:56.660Z,4.68
2017-07-27T07:11:23.634Z,5.50
2017-07-27T07:13:49.924Z,4.70
2017-07-27T07:16:24.314Z,5.65
2017-07-27T07:18:57.076Z,6.20
2017-07-27T07:21:23.289Z,5.95
2017-07-27T07:23:49.510Z,5.10
2017-07-27T07:26:15.756Z,5.80
2017-07-27T07:28:42.012Z,5.97
2017-07-27T07:31:08.231Z,5.70
2017-07-27T07:33:34.451Z,6.53
2017-07-27T07:36:00.748Z,5.60
2017-07-27T07:38:26.964Z,6.53
2017-07-27T07:40:53.964Z,6.10
2017-07-27T07:43:20.212Z,6.00
2017-07-27T07:45:46.476Z,6.35
2017-07-27T07:48:12.732Z,6.45
2017-07-27T07:50:38.988Z,5.87
2017-07-27T07:53:05.283Z,5.70
2017-07-27T07:55:31.530Z,5.90
2017-07-27T07:57:57.813Z,5.47
2017-07-27T08:00:24.780Z,4.95
2017-07-27T08:02:51.023Z,5.10
2017-07-27T08:05:17.360Z,5.10
2017-07-27T08:07:43.603Z,7.68
2017-07-27T08:10:25.171Z,5.32
2017-07-27T08:12:51.429Z,5.75
2017-07-27T08:15:17.640Z,4.60
2017-07-27T08:17:43.881Z,5.82
2017-07-27T08:20:10.153Z,5.07
2017-07-27T08:22:36.372Z,4.87
2017-07-27T08:25:02.596Z,5.00
2017-07-27T08:27:29.629Z,5.65
2017-07-27T08:29:55.869Z,5.97
2017-07-27T08:32:22.835Z,4.65
2017-07-27T08:34:49.079Z,4.90
2017-07-27T08:37:15.302Z,5.32
2017-07-27T08:39:41.559Z,5.10
2017-07-27T08:42:07.778Z,5.40
2017-07-27T08:44:34.004Z,6.68
2017-07-27T08:47:00.239Z,6.12
2017-07-27T08:49:26.471Z,5.55
2017-07-27T08:51:53.185Z,5.68
2017-07-27T08:54:19.405Z,5.93
2017-07-27T08:56:45.616Z,5.60
2017-07-27T08:59:11.904Z,5.45
2017-07-27T09:01:38.130Z,6.75
2017-07-27T09:04:04.349Z,5.70
2017-07-27T09:06:30.604Z,6.45
2017-07-27T09:08:56.863Z,5.60
2017-07-27T09:11:23.087Z,6.22
2017-07-27T09:13:49.337Z,6.18
2017-07-27T09:16:33.376Z,5.72
2017-07-27T09:18:59.629Z,5.50
2017-07-27T09:21:25.897Z,6.15
2017-07-27T09:23:52.851Z,6.37
2017-07-27T09:26:19.859Z,7.05
2017-07-27T09:28:46.077Z,6.78
2017-07-27T09:31:12.303Z,6.50
2017-07-27T09:33:38.541Z,6.72
2017-07-27T09:36:04.765Z,6.50
2017-07-27T09:38:31.024Z,7.53
2017-07-27T09:40:58.007Z,6.22
2017-07-27T09:43:24.220Z,6.53
2017-07-27T09:45:50.492Z,6.10
2017-07-27T09:48:16.738Z,6.03
2017-07-27T09:50:42.967Z,5.22
2017-07-27T09:53:09.214Z,5.68
2017-07-27T09:55:36.208Z,4.68
2017-07-27T09:58:04.328Z,4.78
2017-07-27T10:00:30.600Z,4.10
2017-07-27T10:02:56.823Z,4.43
2017-07-27T10:05:23.093Z,4.57
2017-07-27T10:07:49.331Z,4.35
2017-07-27T10:10:15.555Z,3.65
2017-07-27T10:12:41.878Z,3.78
2017-07-27T10:15:08.090Z,3.30
2017-07-27T10:17:34.324Z,4.15
2017-07-27T10:20:02.101Z,3.15
2017-07-27T10:22:28.365Z,3.10
2017-07-27T10:24:54.601Z,3.05
2017-07-27T10:27:20.848Z,2.62
2017-07-27T10:29:47.112Z,2.50
2017-07-27T10:32:13.343Z,2.80
2017-07-27T10:34:39.583Z,2.30
2017-07-27T10:37:05.836Z,2.62
2017-07-27T10:39:32.820Z,2.95
2017-07-27T10:41:59.103Z,3.53
2017-07-27T10:44:26.071Z,3.12
2017-07-27T10:46:52.308Z,3.05
2017-07-27T10:49:18.595Z,2.60
2017-07-27T10:51:45.572Z,3.95
2017-07-27T10:54:11.801Z,5.97
2017-07-27T10:56:38.035Z,2.92
2017-07-27T10:59:04.287Z,3.00
2017-07-27T11:01:30.539Z,3.60
2017-07-27T11:03:56.757Z,2.30
2017-07-27T11:06:22.976Z,2.78
2017-07-27T11:08:49.235Z,4.85
2017-07-27T11:11:15.472Z,3.33
2017-07-27T11:13:42.463Z,2.80
2017-07-27T11:16:08.689Z,2.25
2017-07-27T11:18:34.980Z,2.70
2017-07-27T11:21:01.943Z,2.40
2017-07-27T11:23:28.172Z,2.30
2017-07-27T11:25:54.424Z,2.90
2017-07-27T11:28:20.695Z,2.28
2017-07-27T11:30:46.927Z,2.53
2017-07-27T11:33:13.163Z,6.07
2017-07-27T11:35:40.149Z,2.37
2017-07-27T11:38:06.377Z,1.80
2017-07-27T11:40:32.662Z,1.80
2017-07-27T11:42:58.892Z,2.20
2017-07-27T11:45:25.167Z,2.00
2017-07-27T11:47:51.427Z,1.65
2017-07-27T11:50:17.658Z,1.55
2017-07-27T11:52:43.920Z,1.90
2017-07-27T11:55:10.157Z,2.15
2017-07-27T11:57:36.399Z,2.83
2017-07-27T12:00:02.715Z,1.92
2017-07-27T12:02:28.956Z,1.70
2017-07-27T12:04:55.188Z,2.33
2017-07-27T12:07:21.467Z,4.22
2017-07-27T12:09:47.711Z,1.92
2017-07-27T12:12:13.965Z,1.70
2017-07-27T12:14:40.211Z,1.95
2017-07-27T12:17:06.467Z,1.52
2017-07-27T12:19:32.682Z,2.35
2017-07-27T12:21:58.906Z,1.77
2017-07-27T12:24:25.139Z,2.12
2017-07-27T12:26:51.393Z,1.70
2017-07-27T12:29:17.627Z,2.83
2017-07-27T12:31:43.898Z,1.92
2017-07-27T12:34:10.145Z,2.15
2017-07-27T12:36:36.395Z,1.77
2017-07-27T12:39:02.736Z,1.87
2017-07-27T12:41:28.945Z,1.35
2017-07-27T12:43:55.203Z,2.20
2017-07-27T12:46:21.485Z,1.60
2017-07-27T12:48:47.745Z,1.50
2017-07-27T12:51:13.966Z,1.60
2017-07-27T12:53:40.196Z,1.40
2017-07-27T12:56:06.424Z,2.00
2017-07-27T12:58:32.653Z,1.50
2017-07-27T13:00:58.901Z,1.67
2017-07-27T13:03:25.907Z,1.75
2017-07-27T13:05:52.155Z,1.52
2017-07-27T13:08:18.364Z,1.98
2017-07-27T13:10:44.594Z,1.83
2017-07-27T13:13:10.860Z,2.42
2017-07-27T13:15:37.853Z,1.62
2017-07-27T13:18:04.082Z,3.00
2017-07-27T13:20:30.344Z,1.90
2017-07-27T13:22:56.560Z,2.28
2017-07-27T13:25:22.783Z,1.70
2017-07-27T13:27:49.040Z,1.70
2017-07-27T13:30:16.057Z,1.70
2017-07-27T13:32:42.320Z,1.65
2017-07-27T13:35:08.556Z,2.20
2017-07-27T13:37:35.585Z,2.15
2017-07-27T13:40:02.706Z,2.37
2017-07-27T13:42:28.956Z,1.98
2017-07-27T13:44:55.927Z,1.80
2017-07-27T13:47:22.897Z,1.52
2017-07-27T13:49:49.146Z,1.75
2017-07-27T13:52:15.373Z,1.50
2017-07-27T13:54:41.610Z,1.55
2017-07-27T13:57:07.940Z,2.17
2017-07-27T13:59:34.153Z,1.60
2017-07-27T14:02:00.363Z,2.08
2017-07-27T14:04:26.612Z,2.40
2017-07-27T14:06:52.840Z,1.60
2017-07-27T14:09:19.084Z,1.40
2017-07-27T14:11:45.376Z,1.48
2017-07-27T14:14:11.656Z,1.30
2017-07-27T14:16:37.905Z,1.50
2017-07-27T14:19:04.192Z,2.22
2017-07-27T14:21:30.425Z,1.50
2017-07-27T14:23:56.672Z,1.75
2017-07-27T14:26:22.900Z,2.58
2017-07-27T14:28:49.127Z,1.20
2017-07-27T14:31:15.616Z,1.55
2017-07-27T14:33:41.852Z,1.10
2017-07-27T14:36:08.105Z,1.23
2017-07-27T14:38:34.364Z,4.45
2017-07-27T14:41:00.575Z,1.20
2017-07-27T14:43:26.802Z,1.77
2017-07-27T14:45:53.050Z,1.60
2017-07-27T14:48:19.284Z,1.52
2017-07-27T14:50:45.525Z,1.15
2017-07-27T14:53:11.761Z,2.03
2017-07-27T14:55:37.979Z,2.15
2017-07-27T14:58:04.197Z,1.70
2017-07-27T15:00:31.175Z,1.65
2017-07-27T15:02:57.404Z,1.17
2017-07-27T15:05:23.652Z,1.15
2017-07-27T15:07:49.915Z,1.77
2017-07-27T15:10:16.932Z,1.50
2017-07-27T15:12:43.177Z,1.37
2017-07-27T15:15:09.434Z,1.42
2017-07-27T15:17:35.681Z,2.03
2017-07-27T15:20:01.979Z,2.30
2017-07-27T15:22:28.967Z,1.35
2017-07-27T15:24:55.212Z,1.48
2017-07-27T15:27:21.460Z,1.65
2017-07-27T15:29:47.990Z,1.30
2017-07-27T15:32:14.217Z,1.60
2017-07-27T15:34:40.470Z,1.52
2017-07-27T15:37:06.764Z,1.42
2017-07-27T15:39:33.020Z,1.40
2017-07-27T15:41:59.265Z,1.77
2017-07-27T15:44:26.300Z,1.30
2017-07-27T15:46:52.522Z,1.37
2017-07-27T15:49:18.788Z,1.33
2017-07-27T15:51:45.017Z,1.30
2017-07-27T15:54:11.236Z,1.80
2017-07-27T15:56:37.522Z,0.90
2017-07-27T15:59:03.752Z,1.48
2017-07-27T16:01:29.998Z,1.35
2017-07-27T16:03:56.990Z,2.03
2017-07-27T16:06:23.312Z,1.60
2017-07-27T16:08:49.537Z,1.40
2017-07-27T16:11:15.747Z,1.30
2017-07-27T16:13:42.022Z,1.25
2017-07-27T16:16:08.247Z,1.23
2017-07-27T16:18:34.528Z,1.80
2017-07-27T16:21:00.788Z,1.30
2017-07-27T16:23:27.036Z,1.30
2017-07-27T16:25:53.324Z,1.90
2017-07-27T16:28:19.566Z,1.42
2017-07-27T16:30:45.805Z,1.25
2017-07-27T16:33:12.103Z,3.55
2017-07-27T16:35:38.328Z,1.33
2017-07-27T16:38:04.608Z,1.98
2017-07-27T16:40:30.840Z,2.15
2017-07-27T16:42:57.056Z,1.45
2017-07-27T16:45:23.337Z,1.50
2017-07-27T16:47:50.317Z,2.60
2017-07-27T16:50:16.565Z,1.98
2017-07-27T16:52:42.811Z,1.80
2017-07-27T16:55:09.051Z,1.95
2017-07-27T16:57:36.279Z,1.55
2017-07-27T17:00:02.622Z,1.67
2017-07-27T17:02:28.892Z,1.80
2017-07-27T17:04:55.135Z,1.50
2017-07-27T17:07:21.391Z,1.48
2017-07-27T17:09:47.656Z,1.87
2017-07-27T17:12:13.923Z,1.55
2017-07-27T17:14:40.160Z,2.35
2017-07-27T17:17:06.435Z,1.70
2017-07-27T17:19:33.423Z,1.30
2017-07-27T17:21:59.678Z,1.60
2017-07-27T17:24:25.935Z,1.20
2017-07-27T17:26:52.181Z,1.40
2017-07-27T17:29:18.457Z,2.30
2017-07-27T17:31:44.697Z,1.90
2017-07-27T17:34:10.939Z,1.98
2017-07-27T17:36:37.222Z,1.50
2017-07-27T17:39:03.544Z,1.58
2017-07-27T17:41:29.812Z,1.60
2017-07-27T17:43:56.055Z,1.50
2017-07-27T17:46:22.328Z,1.90
2017-07-27T17:48:48.589Z,3.15
2017-07-27T17:51:14.902Z,1.80
2017-07-27T17:53:41.178Z,1.80
2017-07-27T17:56:07.414Z,2.17
2017-07-27T17:58:34.409Z,1.60
2017-07-27T18:01:00.658Z,1.77
2017-07-27T18:03:26.976Z,1.60
2017-07-27T18:05:53.233Z,3.05
2017-07-27T18:08:19.460Z,1.75
2017-07-27T18:10:45.731Z,2.95
2017-07-27T18:13:11.970Z,1.92
2017-07-27T18:15:38.217Z,1.87
2017-07-27T18:18:04.492Z,1.70
2017-07-27T18:20:30.777Z,2.15
2017-07-27T18:22:57.065Z,2.35
2017-07-27T18:25:23.329Z,1.73
2017-07-27T18:27:49.592Z,1.90
2017-07-27T18:30:15.817Z,2.03
2017-07-27T18:32:42.054Z,1.95
2017-07-27T18:35:09.086Z,4.60
2017-07-27T18:37:35.348Z,2.65
2017-07-27T18:40:01.606Z,1.98
2017-07-27T18:42:27.836Z,1.83
2017-07-27T18:44:54.071Z,2.33
2017-07-27T18:47:20.357Z,2.20
2017-07-27T18:49:46.624Z,1.60
2017-07-27T18:52:12.856Z,1.50
2017-07-27T18:54:39.167Z,1.67
2017-07-27T18:57:05.414Z,2.12
2017-07-27T18:59:31.703Z,1.80
2017-07-27T19:01:57.924Z,1.60
2017-07-27T19:04:24.323Z,1.80
2017-07-27T19:06:50.640Z,1.35
2017-07-27T19:09:16.972Z,1.85
2017-07-27T19:11:43.324Z,1.95
2017-07-27T19:14:09.675Z,1.52
2017-07-27T19:16:36.779Z,1.45
2017-07-27T19:19:03.166Z,2.35
2017-07-27T19:21:29.521Z,3.10
2017-07-27T19:23:55.954Z,2.08
2017-07-27T19:26:22.305Z,3.03
2017-07-27T19:28:48.660Z,1.80
2017-07-27T19:31:14.991Z,1.80
2017-07-27T19:33:41.341Z,2.03
2017-07-27T19:36:07.720Z,1.30
2017-07-27T19:38:34.109Z,1.12
2017-07-27T19:41:00.466Z,1.67
2017-07-27T19:43:26.819Z,1.20
2017-07-27T19:45:53.152Z,1.85
2017-07-27T19:48:19.492Z,1.17
2017-07-27T19:50:45.822Z,1.15
2017-07-27T19:53:12.162Z,1.15
2017-07-27T19:55:38.500Z,1.20
2017-07-27T19:58:05.643Z,2.25
2017-07-27T20:00:31.981Z,3.90
2017-07-27T20:02:58.319Z,1.40
2017-07-27T20:05:24.672Z,1.35
2017-07-27T20:07:51.729Z,1.40
2017-07-27T20:10:18.089Z,1.50
2017-07-27T20:12:44.437Z,1.00
2017-07-27T20:15:10.776Z,1.37
2017-07-27T20:17:37.099Z,2.17
2017-07-27T20:20:03.429Z,0.80
2017-07-27T20:22:29.779Z,1.15
2017-07-27T20:24:56.103Z,3.10
2017-07-27T20:27:22.500Z,2.20
2017-07-27T20:29:48.868Z,2.75
2017-07-27T20:32:15.192Z,1.10
2017-07-27T20:34:41.552Z,1.40
2017-07-27T20:37:08.612Z,1.27
2017-07-27T20:39:34.949Z,1.08
2017-07-27T20:42:01.327Z,1.00
2017-07-27T20:44:27.651Z,1.00
2017-07-27T20:46:53.948Z,1.20
2017-07-27T20:49:20.283Z,1.60
2017-07-27T20:51:46.603Z,1.15
2017-07-27T20:54:12.947Z,2.53
2017-07-27T20:56:39.252Z,1.62
2017-07-27T20:59:05.567Z,2.25
2017-07-27T21:01:32.658Z,1.15
2017-07-27T21:03:59.006Z,1.60
2017-07-27T21:06:25.353Z,1.58
2017-07-27T21:08:51.679Z,1.60
2017-07-27T21:11:18.020Z,1.60
2017-07-27T21:13:44.484Z,1.30
2017-07-27T21:16:10.800Z,1.10
2017-07-27T21:18:37.885Z,0.90
2017-07-27T21:21:04.205Z,0.90
2017-07-27T21:23:30.518Z,0.93
2017-07-27T21:25:57.604Z,2.65
2017-07-27T21:28:23.959Z,0.95
2017-07-27T21:30:50.280Z,0.95
2017-07-27T21:33:16.604Z,1.77
2017-07-27T21:35:42.920Z,1.73
2017-07-27T21:38:09.299Z,1.27
2017-07-27T21:40:35.650Z,1.00
2017-07-27T21:43:01.966Z,1.00
2017-07-27T21:45:29.069Z,0.90
2017-07-27T21:47:55.413Z,2.50
2017-07-27T21:50:21.724Z,2.28
2017-07-27T21:52:48.131Z,5.57
2017-07-27T21:55:14.476Z,1.40
2017-07-27T21:57:40.793Z,1.05
2017-07-27T22:00:07.133Z,1.45
2017-07-27T22:02:33.500Z,3.05
2017-07-27T22:04:59.843Z,1.15
2017-07-27T22:07:26.148Z,0.90
2017-07-27T22:09:52.497Z,0.85
2017-07-27T22:12:18.840Z,0.90
2017-07-27T22:14:45.152Z,1.35
2017-07-27T22:17:11.508Z,0.98
2017-07-27T22:19:38.588Z,1.45
2017-07-27T22:22:04.888Z,1.00
2017-07-27T22:24:31.235Z,1.10
2017-07-27T22:26:57.584Z,1.00
2017-07-27T22:29:23.900Z,1.58
2017-07-27T22:31:50.231Z,0.95
2017-07-27T22:34:16.547Z,1.20
2017-07-27T22:36:42.916Z,2.17
2017-07-27T22:39:09.299Z,1.30
2017-07-27T22:41:36.351Z,2.15
2017-07-27T22:44:03.400Z,1.52
2017-07-27T22:46:29.740Z,2.15
2017-07-27T22:48:56.858Z,1.83
2017-07-27T22:51:23.263Z,1.10
2017-07-27T22:53:49.572Z,1.70
2017-07-27T22:56:15.919Z,1.83
2017-07-27T22:58:42.232Z,1.58
2017-07-27T23:01:08.547Z,1.15
2017-07-27T23:03:34.893Z,1.20
2017-07-27T23:06:01.235Z,2.28
2017-07-27T23:08:27.575Z,1.58
2017-07-27T23:10:53.931Z,1.40
2017-07-27T23:13:20.231Z,1.60
2017-07-27T23:15:46.633Z,1.23
2017-07-27T23:18:13.008Z,1.75
2017-07-27T23:20:39.348Z,1.60
2017-07-27T23:23:05.660Z,1.45
2017-07-27T23:25:32.015Z,1.75
2017-07-27T23:27:58.411Z,1.60
2017-07-27T23:30:24.747Z,1.35
2017-07-27T23:32:51.061Z,3.35
2017-07-27T23:35:17.411Z,1.83
2017-07-27T23:37:43.728Z,1.55
2017-07-27T23:40:10.371Z,1.90
2017-07-27T23:42:36.693Z,1.85
2017-07-27T23:45:03.028Z,1.87
2017-07-27T23:47:29.391Z,1.87
2017-07-27T23:49:56.518Z,1.33
2017-07-27T23:52:22.835Z,2.03
2017-07-27T23:54:49.384Z,1.58
2017-07-27T23:57:15.733Z,1.60
2017-07-27T23:59:42.060Z,1.80
